Arlington, NC

11:11 PM EDT on May 26, 2015 (GMT -0400)
West Main Street | | Change Station
CLOSE
Current Station
Personal Weather Station
Location: Elkin, NC
Elevation: 938 ft
Nearby Weather Stations

Elev 938 ft 36.24 °N, 80.86 °W | Updated 1 minute ago

Partly Cloudy
Partly Cloudy
72.3 °F
Feels Like 73 °F
N
0.0
Wind Variable Wind from SSE

Today
High -- | Low -- °F
--% Chance of Precip.
Yesterday
High -- | Low -- °F
Precip. -- in
6:09 AM 8:30 PM
Waxing Gibbous, 63% visible
Pressure 30.26 in
Visibility 10.0 miles
Clouds Scattered Clouds 7000 ft
Mostly Cloudy 8500 ft
Heat Index 73 °F
Dew Point 65 °F
Humidity 77%
Rainfall 0.00 in
Snow Depth Not available.
UV 0 out of 12
Pollen 7.50 out of 12
Air Quality Not available.
Flu Activity No Activity
METAR KUKF 270255Z AUTO 00000KT 10SM SCT070 BKN085 22/17 A3026 RMK AO2 LTG DSNT S AND W

More Conditions Fewer Conditions

Pressure 30.26 in
Visibility 10.0 miles
Clouds Scattered Clouds 7000 ft
Mostly Cloudy 8500 ft
Heat Index 73 °F
Dew Point 65 °F
Humidity 77%
Rainfall 0.00 in
Snow Depth Not available.
UV 0 out of 12
Pollen 7.50 out of 12
Air Quality Not available.
Flu Activity No Activity
METAR KUKF 270255Z AUTO 00000KT 10SM SCT070 BKN085 22/17 A3026 RMK AO2 LTG DSNT S AND W

More Conditions Fewer Conditions

10-Day Weather Forecast

Almanac

Astronomy

May. 26, 2015 Rise Set
Actual Time
Civil Twilight
Nautical Twilight
Astronomical Twilight
Moon
Length of Visible Light
Length of Day
Tomorrow will be .
, % of the Moon is Illuminated

Today's Extremes

State Highs State Lows

Community

WunderPhotos

Upload Photos

1,824,577 photos uploaded!

WunderBlogs® & News

Nearby

Air Quality

  Air Quality AQ Index Pollutant
Not available.

Snow Depth

Station Depth Elevation

Earthquake Activity

City Distance Mag. Time & Date
Minimum magnitude displayed is 2.5.

Coastal Water Temperatures

Place Temperature

Stations

Nearby Weather Stations

Station Location Temp. Windchill Dew Point Humidity Wind Precip. Elev Updated Type